Time;durP1;ratioP1;P1;durP2;ratioP2;P2;SDS_P1;SDS_P2;PMS_P1;PMS_P2;Temp;Humidity;BMP_temperature;BMP_pressure;BME280_temperature;BME280_humidity;BME280_pressure;Samples;Min_cycle;Max_cycle;Signal;HPM_P1;HPM_P2
2024/03/24 00:00:43;;;;;;;0.98;0.40;;;8.50;99.90;;;;;;4997676;28;20050;-77
2024/03/24 00:03:12;;;;;;;1.63;0.50;;;9.00;99.90;;;;;;4979000;28;20058;-86
2024/03/24 00:05:44;;;;;;;5.45;1.40;;;9.20;99.90;;;;;;5065511;23;20078;-79
2024/03/24 00:08:19;;;;;;;1.25;0.50;;;8.80;99.90;;;;;;5018918;28;20042;-80
2024/03/24 00:10:48;;;;;;;1.20;0.60;;;8.90;99.90;;;;;;5020706;28;20069;-84
2024/03/24 00:13:18;;;;;;;2.08;0.73;;;9.20;99.90;;;;;;5008142;28;20049;-81
2024/03/24 00:15:46;;;;;;;2.83;0.70;;;8.90;99.90;;;;;;5024299;28;20038;-82
2024/03/24 00:18:17;;;;;;;1.65;0.50;;;8.50;99.90;;;;;;5007082;28;20033;-79
2024/03/24 00:20:44;;;;;;;1.38;0.70;;;8.60;99.90;;;;;;5005821;28;20043;-84
2024/03/24 00:23:15;;;;;;;1.42;0.30;;;8.70;99.90;;;;;;5006909;28;20019;-80
2024/03/24 00:25:45;;;;;;;0.98;0.43;;;9.10;99.90;;;;;;5011792;28;20057;-86
2024/03/24 00:28:12;;;;;;;1.25;0.55;;;8.30;99.90;;;;;;5008462;28;20045;-82
2024/03/24 00:30:43;;;;;;;0.88;0.40;;;8.60;99.90;;;;;;5033471;23;20060;-81
2024/03/24 00:33:13;;;;;;;1.10;0.30;;;8.80;99.90;;;;;;5029184;23;20053;-86
2024/03/24 00:35:41;;;;;;;2.38;0.30;;;8.80;99.90;;;;;;5020602;28;20117;-80
2024/03/24 00:38:07;;;;;;;1.40;0.43;;;9.00;99.90;;;;;;5016532;28;20025;-83
2024/03/24 00:40:36;;;;;;;2.65;0.63;;;8.50;99.90;;;;;;5012338;28;20037;-79
2024/03/24 00:43:03;;;;;;;2.78;0.63;;;8.60;99.90;;;;;;5018095;28;20038;-83
2024/03/24 00:45:31;;;;;;;4.20;0.50;;;8.50;99.90;;;;;;5028995;28;20034;-85
2024/03/24 00:48:01;;;;;;;1.70;0.50;;;8.40;99.90;;;;;;5030899;28;20103;-85
2024/03/24 00:50:29;;;;;;;1.98;0.40;;;8.20;99.90;;;;;;5036060;28;20021;-81
2024/03/24 00:52:58;;;;;;;2.35;0.50;;;8.30;99.90;;;;;;5124503;23;20029;-87
2024/03/24 00:55:26;;;;;;;3.08;0.70;;;8.20;99.90;;;;;;5033181;28;20046;-89
2024/03/24 00:57:54;;;;;;;2.60;0.80;;;8.30;99.90;;;;;;5001757;28;20033;-86
2024/03/24 01:00:22;;;;;;;3.33;0.55;;;8.30;99.90;;;;;;5026197;28;20103;-87
2024/03/24 01:02:49;;;;;;;2.05;0.60;;;8.30;99.90;;;;;;5015131;28;20037;-88
2024/03/24 01:05:16;;;;;;;2.13;0.80;;;8.30;99.90;;;;;;5005687;28;20059;-86
2024/03/24 01:07:47;;;;;;;3.45;0.80;;;8.20;99.90;;;;;;5002880;28;20550;-87
2024/03/24 01:10:15;;;;;;;1.65;0.77;;;8.20;99.90;;;;;;5020018;28;20056;-87
2024/03/24 01:12:43;;;;;;;1.63;0.50;;;8.20;99.90;;;;;;5023131;28;20073;-88
2024/03/24 01:15:12;;;;;;;1.20;0.60;;;8.20;99.90;;;;;;4986605;28;20044;-88
2024/03/24 01:17:41;;;;;;;1.52;0.60;;;8.10;99.90;;;;;;5029081;28;20049;-88
2024/03/24 01:20:11;;;;;;;1.73;0.60;;;8.10;99.90;;;;;;5019954;28;20052;-88
2024/03/24 01:22:38;;;;;;;4.10;1.02;;;8.10;99.90;;;;;;5020338;28;20106;-87
2024/03/24 01:25:06;;;;;;;1.75;0.93;;;8.10;99.90;;;;;;5017404;28;20123;-90
2024/03/24 01:27:32;;;;;;;2.65;0.70;;;8.10;99.90;;;;;;5023607;28;20130;-89
2024/03/24 01:30:00;;;;;;;2.78;0.80;;;8.10;99.90;;;;;;5012778;28;20037;-89
2024/03/24 01:32:28;;;;;;;1.83;0.95;;;8.10;99.90;;;;;;5017962;28;20049;-87
2024/03/24 01:34:56;;;;;;;2.22;0.80;;;8.00;99.90;;;;;;5022672;28;20037;-88
2024/03/24 01:37:23;;;;;;;2.55;1.00;;;8.10;99.90;;;;;;5001553;28;20481;-89
2024/03/24 01:39:50;;;;;;;2.00;0.90;;;8.10;99.90;;;;;;5015859;28;20045;-89
2024/03/24 01:42:19;;;;;;;3.45;1.15;;;8.10;99.90;;;;;;4989055;28;20048;-85
2024/03/24 01:44:47;;;;;;;1.90;1.05;;;8.00;99.90;;;;;;5008566;28;20044;-89
2024/03/24 01:47:14;;;;;;;2.70;1.10;;;8.00;99.90;;;;;;4992272;28;20041;-90
2024/03/24 01:49:43;;;;;;;4.32;1.88;;;8.00;99.90;;;;;;5013806;28;20481;-89
2024/03/24 01:52:13;;;;;;;1.83;1.00;;;8.10;99.90;;;;;;4998061;28;20404;-88
2024/03/24 01:54:40;;;;;;;1.88;0.82;;;8.10;99.90;;;;;;5000331;28;20173;-90
2024/03/24 01:57:07;;;;;;;3.13;1.08;;;8.20;99.90;;;;;;4997300;28;20038;-89
2024/03/24 01:59:36;;;;;;;4.18;1.38;;;8.10;99.90;;;;;;5004880;28;20136;-88
2024/03/24 02:02:03;;;;;;;3.53;1.20;;;8.10;99.90;;;;;;5034103;28;20560;-88
2024/03/24 02:04:31;;;;;;;5.05;1.70;;;8.00;99.90;;;;;;5017294;28;20060;-88
2024/03/24 02:06:59;;;;;;;2.65;1.23;;;8.00;99.90;;;;;;5014571;28;20045;-88
2024/03/24 02:09:27;;;;;;;5.53;1.27;;;8.00;99.90;;;;;;4987996;28;20493;-89
2024/03/24 02:11:54;;;;;;;4.05;1.65;;;8.00;99.90;;;;;;5000905;28;20029;-85
2024/03/24 02:14:22;;;;;;;4.60;1.63;;;7.90;99.90;;;;;;5018002;28;20033;-88
2024/03/24 02:16:51;;;;;;;3.72;1.77;;;7.90;99.90;;;;;;5009829;28;20041;-89
2024/03/24 02:19:18;;;;;;;5.20;1.75;;;7.80;99.90;;;;;;4992892;28;20129;-88
2024/03/24 02:21:45;;;;;;;4.20;1.90;;;7.90;99.90;;;;;;5005928;28;21260;-89
2024/03/24 02:24:14;;;;;;;5.15;2.20;;;7.90;99.90;;;;;;4998550;28;20041;-88
2024/03/24 02:26:42;;;;;;;3.30;1.75;;;7.90;99.90;;;;;;5030146;28;20139;-86
2024/03/24 02:29:13;;;;;;;5.50;2.28;;;7.90;99.90;;;;;;5014427;28;20047;-88
2024/03/24 02:31:40;;;;;;;4.05;1.85;;;7.80;99.90;;;;;;5002768;28;20838;-90
2024/03/24 02:34:08;;;;;;;2.85;1.67;;;7.80;99.90;;;;;;5005364;28;20142;-88
2024/03/24 02:36:36;;;;;;;4.97;2.10;;;7.80;99.90;;;;;;5001940;28;20042;-87
2024/03/24 02:39:05;;;;;;;3.22;1.45;;;7.90;99.90;;;;;;5017149;28;20056;-87
2024/03/24 02:41:33;;;;;;;4.25;2.00;;;7.90;99.90;;;;;;5018012;28;20034;-87
2024/03/24 02:44:00;;;;;;;5.22;1.92;;;7.90;99.90;;;;;;5010343;28;20096;-88
2024/03/24 02:46:27;;;;;;;4.07;1.25;;;7.90;99.90;;;;;;5009654;28;20042;-88
2024/03/24 02:48:54;;;;;;;4.07;1.73;;;7.90;99.90;;;;;;4978050;28;20061;-89
2024/03/24 02:51:22;;;;;;;3.90;1.77;;;8.00;99.90;;;;;;4998122;28;20034;-87
2024/03/24 02:53:49;;;;;;;4.85;2.05;;;7.90;99.90;;;;;;5001201;28;20045;-88
2024/03/24 02:56:17;;;;;;;4.68;1.73;;;7.80;99.90;;;;;;5005526;28;20053;-88
2024/03/24 02:58:45;;;;;;;3.80;2.03;;;7.70;99.90;;;;;;5002303;28;20061;-89
2024/03/24 03:01:13;;;;;;;4.40;1.92;;;7.70;99.90;;;;;;5015851;28;20137;-87
2024/03/24 03:03:43;;;;;;;5.65;2.78;;;7.80;99.90;;;;;;5000373;28;21253;-88
2024/03/24 03:06:11;;;;;;;3.17;1.90;;;7.60;99.90;;;;;;5000285;28;20045;-88
2024/03/24 03:08:38;;;;;;;6.43;2.55;;;7.60;99.90;;;;;;5005162;28;20042;-86
2024/03/24 03:11:07;;;;;;;5.25;2.40;;;7.50;99.90;;;;;;5000385;28;20049;-88
2024/03/24 03:13:35;;;;;;;9.88;3.50;;;7.50;99.90;;;;;;5012614;28;20045;-87
2024/03/24 03:16:04;;;;;;;5.45;2.28;;;7.50;99.90;;;;;;4998133;28;20068;-88
2024/03/24 03:18:32;;;;;;;3.72;1.88;;;7.50;99.90;;;;;;5015875;28;20073;-88
2024/03/24 03:21:00;;;;;;;5.07;2.67;;;7.50;99.90;;;;;;4997679;28;20038;-86
2024/03/24 03:26:45;;;;;;;4.28;2.50;;;7.40;99.90;;;;;;4936496;29;20095;-80
2024/03/24 03:29:11;;;;;;;4.47;2.33;;;7.40;99.90;;;;;;4914793;29;20048;-80
2024/03/24 03:31:40;;;;;;;3.20;1.50;;;7.40;99.90;;;;;;4934689;29;20550;-80
2024/03/24 03:34:08;;;;;;;3.70;1.67;;;7.50;99.90;;;;;;4925245;29;20050;-80
2024/03/24 03:36:36;;;;;;;5.50;2.15;;;7.60;99.90;;;;;;4921315;28;20543;-79
2024/03/24 03:39:04;;;;;;;3.45;1.95;;;7.50;99.90;;;;;;4922431;29;20071;-81
2024/03/24 03:41:32;;;;;;;4.50;2.28;;;7.50;99.90;;;;;;4921298;29;20039;-80
2024/03/24 03:43:59;;;;;;;6.25;2.10;;;7.40;99.90;;;;;;4943144;29;20107;-79
2024/03/24 03:46:26;;;;;;;5.97;1.48;;;7.50;99.90;;;;;;4920225;29;20050;-79
2024/03/24 03:48:55;;;;;;;9.00;3.03;;;7.70;99.90;;;;;;4939479;29;20035;-78
2024/03/24 03:51:36;;;;;;;5.78;2.42;;;7.40;99.90;;;;;;4931294;29;20410;-79
2024/03/24 03:54:04;;;;;;;3.50;1.70;;;7.30;99.90;;;;;;4920960;29;20048;-81
2024/03/24 03:56:31;;;;;;;4.18;1.90;;;7.40;99.90;;;;;;4920805;29;20079;-76
2024/03/24 03:58:58;;;;;;;5.60;1.98;;;7.30;99.90;;;;;;4916813;29;20062;-75
2024/03/24 04:01:25;;;;;;;3.83;1.80;;;7.30;99.90;;;;;;4913819;29;20043;-76
2024/03/24 04:03:52;;;;;;;4.70;1.80;;;7.30;99.90;;;;;;4914449;29;20122;-76
2024/03/24 04:06:20;;;;;;;4.57;1.92;;;7.30;99.90;;;;;;4881204;29;20050;-75
2024/03/24 04:08:47;;;;;;;4.65;2.20;;;7.30;99.90;;;;;;4912060;29;20052;-76
2024/03/24 04:11:14;;;;;;;4.38;2.05;;;7.20;99.90;;;;;;4909288;29;20412;-76
2024/03/24 04:13:42;;;;;;;5.10;2.45;;;7.20;99.90;;;;;;4930681;29;20460;-74
2024/03/24 04:16:10;;;;;;;4.32;1.90;;;7.30;99.90;;;;;;4915130;29;20048;-75
2024/03/24 04:18:36;;;;;;;5.43;1.90;;;7.30;99.90;;;;;;4927753;29;20575;-74
2024/03/24 04:21:05;;;;;;;4.32;1.83;;;7.30;99.90;;;;;;4910422;29;20093;-76
2024/03/24 04:23:33;;;;;;;4.47;2.50;;;7.30;99.90;;;;;;4918282;29;20036;-75
2024/03/24 04:26:00;;;;;;;4.35;1.73;;;7.20;99.90;;;;;;4910083;29;20063;-75
2024/03/24 04:28:26;;;;;;;3.70;1.80;;;7.20;99.90;;;;;;4912848;29;20088;-75
2024/03/24 04:30:54;;;;;;;6.07;2.10;;;7.20;99.90;;;;;;4917742;29;20062;-74
2024/03/24 04:33:20;;;;;;;3.75;1.73;;;7.10;99.90;;;;;;4918289;29;20040;-77
2024/03/24 04:35:48;;;;;;;3.75;1.27;;;7.20;99.90;;;;;;4911031;29;20047;-75
2024/03/24 04:38:15;;;;;;;3.50;1.55;;;7.10;99.90;;;;;;4912636;29;20039;-76
2024/03/24 04:40:45;;;;;;;5.43;1.70;;;7.20;99.90;;;;;;4913373;29;20067;-75
2024/03/24 04:43:15;;;;;;;3.50;1.45;;;7.20;99.90;;;;;;4909013;29;20055;-75
2024/03/24 04:45:44;;;;;;;4.28;1.65;;;7.10;99.90;;;;;;4896374;29;20607;-74
2024/03/24 04:48:11;;;;;;;3.15;1.23;;;7.20;99.90;;;;;;4914092;29;20054;-74
2024/03/24 04:50:41;;;;;;;4.10;1.00;;;7.10;99.90;;;;;;4908597;29;20099;-75
2024/03/24 04:53:11;;;;;;;4.28;1.15;;;7.20;99.90;;;;;;4932763;29;20459;-76
2024/03/24 04:55:37;;;;;;;5.38;2.97;;;7.20;99.90;;;;;;4908273;29;20048;-74
2024/03/24 04:58:06;;;;;;;3.90;1.00;;;7.20;99.90;;;;;;4915724;29;20124;-75
2024/03/24 05:00:33;;;;;;;2.50;1.10;;;7.20;99.90;;;;;;4914547;29;20047;-75
2024/03/24 05:03:00;;;;;;;2.00;1.00;;;7.20;99.90;;;;;;4910091;29;20048;-76
2024/03/24 05:05:28;;;;;;;1.90;0.93;;;7.20;99.90;;;;;;4910302;29;20563;-75
2024/03/24 05:10:56;;;;;;;2.78;1.10;;;7.20;99.90;;;;;;4974787;28;20039;-80
2024/03/24 05:13:24;;;;;;;3.42;0.98;;;7.20;99.90;;;;;;4965704;28;20410;-81
2024/03/24 05:16:30;;;;;;;3.40;0.95;;;7.20;99.90;;;;;;5033150;23;20497;-86
2024/03/24 05:19:00;;;;;;;2.50;0.90;;;7.20;99.90;;;;;;4971281;28;20046;-77
2024/03/24 05:21:27;;;;;;;4.32;0.90;;;7.20;99.90;;;;;;4972928;28;20046;-82
2024/03/24 05:23:57;;;;;;;2.10;0.90;;;7.00;99.90;;;;;;4954551;28;20062;-82
2024/03/24 05:26:25;;;;;;;1.05;0.45;;;6.70;99.90;;;;;;4982269;28;20039;-81
2024/03/24 05:28:54;;;;;;;4.45;1.23;;;7.60;99.90;;;;;;4971249;28;20038;-81
2024/03/24 05:31:22;;;;;;;2.25;0.73;;;5.60;99.90;;;;;;4972644;28;20043;-80
2024/03/24 05:33:51;;;;;;;3.00;1.10;;;7.30;99.90;;;;;;4972654;28;20038;-80
2024/03/24 05:36:19;;;;;;;2.95;1.20;;;7.30;99.90;;;;;;4988253;28;20026;-80
2024/03/24 05:38:45;;;;;;;2.75;0.80;;;7.30;99.90;;;;;;4999341;23;20120;-87
2024/03/24 05:44:42;;;;;;;1.20;0.80;;;6.20;99.90;;;;;;5007134;28;20054;-79
2024/03/24 05:47:10;;;;;;;3.72;0.70;;;7.50;99.90;;;;;;4995320;28;20030;-78
2024/03/24 05:49:39;;;;;;;3.22;0.85;;;7.70;99.90;;;;;;5021556;28;20051;-77
2024/03/24 05:52:06;;;;;;;6.57;0.70;;;6.80;99.90;;;;;;4986890;28;20042;-80
2024/03/24 05:54:34;;;;;;;2.25;0.70;;;7.40;99.90;;;;;;4984029;28;20043;-77
2024/03/24 05:57:01;;;;;;;2.03;0.88;;;7.40;99.90;;;;;;4985743;28;20120;-81
2024/03/24 05:59:29;;;;;;;1.90;0.85;;;7.20;99.90;;;;;;4979659;28;20054;-79
2024/03/24 06:01:56;;;;;;;2.40;1.17;;;7.20;99.90;;;;;;4973450;28;20053;-77
2024/03/24 06:04:28;;;;;;;3.15;1.60;;;7.50;99.90;;;;;;4980135;28;20138;-81
2024/03/24 06:06:54;;;;;;;4.10;0.73;;;7.40;99.90;;;;;;4981194;28;20062;-80
2024/03/24 06:09:22;;;;;;;4.55;1.67;;;7.40;99.90;;;;;;5001297;28;20039;-80
2024/03/24 06:11:49;;;;;;;4.75;1.27;;;7.40;99.90;;;;;;4994114;28;20049;-78
2024/03/24 06:14:17;;;;;;;2.20;1.17;;;7.70;99.90;;;;;;4997407;28;20476;-81
2024/03/24 06:16:43;;;;;;;3.25;0.90;;;7.60;99.90;;;;;;5012255;28;20212;-77
2024/03/24 06:19:13;;;;;;;3.22;0.77;;;7.60;99.90;;;;;;4973341;28;20049;-76
2024/03/24 06:21:39;;;;;;;3.17;0.60;;;7.60;99.90;;;;;;4967160;28;20391;-75
2024/03/24 06:24:07;;;;;;;2.45;0.70;;;7.80;99.90;;;;;;4962918;28;20046;-79
2024/03/24 06:26:33;;;;;;;3.00;0.40;;;7.70;99.90;;;;;;4967353;28;20050;-76
2024/03/24 06:29:01;;;;;;;3.13;0.73;;;7.70;99.90;;;;;;4984958;28;20049;-75
2024/03/24 06:31:27;;;;;;;2.00;1.02;;;7.70;99.90;;;;;;5005461;28;20042;-77
2024/03/24 06:33:57;;;;;;;2.90;0.77;;;7.80;99.90;;;;;;4951088;28;20498;-76
2024/03/24 06:36:25;;;;;;;47.30;25.45;;;7.80;99.90;;;;;;4985149;28;20050;-75
2024/03/24 06:38:53;;;;;;;5.85;3.70;;;7.90;99.90;;;;;;4965364;28;20046;-77
2024/03/24 06:41:19;;;;;;;4.00;0.60;;;7.90;99.90;;;;;;4965152;28;20502;-78
2024/03/24 06:43:47;;;;;;;2.38;0.65;;;7.80;99.90;;;;;;4969700;28;20137;-78
2024/03/24 06:46:13;;;;;;;4.15;1.08;;;8.00;99.90;;;;;;4946629;28;20054;-78
2024/03/24 06:48:41;;;;;;;2.85;0.73;;;8.00;99.90;;;;;;4945026;28;20062;-79
2024/03/24 06:51:07;;;;;;;3.50;1.70;;;7.90;99.90;;;;;;4947798;28;20035;-76
2024/03/24 06:53:36;;;;;;;5.88;4.28;;;7.90;99.90;;;;;;4960930;28;20072;-77
2024/03/24 06:56:02;;;;;;;3.63;1.20;;;8.00;99.90;;;;;;4963249;28;20070;-78
2024/03/24 06:58:30;;;;;;;4.93;2.50;;;7.90;99.90;;;;;;4943212;28;20047;-76
2024/03/24 07:00:56;;;;;;;4.18;2.17;;;7.90;99.90;;;;;;4942068;28;20051;-78
2024/03/24 07:03:24;;;;;;;3.72;0.90;;;8.00;99.90;;;;;;4943507;28;20043;-78
2024/03/24 07:05:50;;;;;;;2.55;1.23;;;8.00;99.90;;;;;;4961635;28;20514;-78
2024/03/24 07:08:18;;;;;;;2.20;0.70;;;8.10;99.90;;;;;;4960413;28;20051;-79
2024/03/24 07:10:51;;;;;;;2.47;0.63;;;8.20;99.90;;;;;;4969480;28;20498;-77
2024/03/24 07:13:18;;;;;;;6.82;1.20;;;8.40;99.90;;;;;;4966252;28;20514;-78
2024/03/24 07:15:44;;;;;;;2.08;0.60;;;8.50;99.90;;;;;;4956091;28;20047;-76
2024/03/24 07:18:12;;;;;;;2.20;0.60;;;8.60;99.90;;;;;;4962503;28;20054;-77
2024/03/24 07:20:39;;;;;;;2.45;0.50;;;8.80;99.90;;;;;;4945181;28;20532;-76
2024/03/24 07:23:06;;;;;;;1.20;0.50;;;8.70;99.90;;;;;;4962758;28;20050;-79
2024/03/24 07:25:33;;;;;;;3.83;0.65;;;8.70;99.90;;;;;;4962166;28;20039;-78
2024/03/24 07:28:09;;;;;;;3.45;0.90;;;8.50;99.90;;;;;;5060233;23;20057;-84
2024/03/24 07:30:35;;;;;;;3.15;0.57;;;10.00;99.90;;;;;;5006443;28;20042;-82
2024/03/24 07:33:04;;;;;;;1.63;0.80;;;8.70;99.90;;;;;;5013205;23;20089;-90
2024/03/24 07:35:30;;;;;;;2.40;0.70;;;8.60;99.70;;;;;;5006942;28;20137;-88
2024/03/24 07:37:58;;;;;;;2.45;0.68;;;8.70;99.90;;;;;;4970978;28;20038;-89
2024/03/24 07:40:25;;;;;;;2.45;0.60;;;8.80;99.90;;;;;;4995733;28;20050;-91
2024/03/24 07:42:52;;;;;;;4.38;1.58;;;8.90;99.80;;;;;;5006554;28;20042;-90
2024/03/24 07:45:20;;;;;;;5.30;1.40;;;9.00;99.80;;;;;;5008985;28;20046;-89
2024/03/24 07:47:49;;;;;;;11.82;7.13;;;8.90;99.00;;;;;;4989313;28;20050;-90
2024/03/24 07:50:16;;;;;;;10.40;6.78;;;9.20;98.60;;;;;;4990379;28;20056;-87
2024/03/24 07:52:44;;;;;;;5.00;3.38;;;9.30;98.30;;;;;;4999560;28;20052;-89
2024/03/24 07:55:11;;;;;;;5.95;1.42;;;9.50;98.70;;;;;;5002140;28;20045;-91
2024/03/24 07:57:38;;;;;;;3.40;0.70;;;9.60;98.10;;;;;;5016557;28;20034;-91
2024/03/24 08:00:06;;;;;;;3.10;0.55;;;9.50;97.10;;;;;;5006230;28;20086;-90
2024/03/24 08:02:41;;;;;;;2.90;1.60;;;9.30;96.80;;;;;;5002047;28;20034;-90
2024/03/24 08:05:08;;;;;;;3.03;1.38;;;9.30;97.00;;;;;;4988200;28;20045;-92
2024/03/24 08:07:36;;;;;;;1.63;0.50;;;9.30;97.00;;;;;;5002166;28;20037;-90
2024/03/24 08:10:05;;;;;;;1.92;0.77;;;9.50;97.40;;;;;;4987409;28;20132;-91
2024/03/24 08:12:32;;;;;;;3.13;0.93;;;9.40;96.00;;;;;;4990385;28;20401;-90
2024/03/24 08:14:59;;;;;;;2.95;0.80;;;9.40;96.20;;;;;;5007256;28;20046;-90
2024/03/24 08:17:27;;;;;;;2.83;0.43;;;9.40;95.90;;;;;;4993266;28;20042;-91
2024/03/24 08:19:55;;;;;;;4.05;2.25;;;9.60;95.30;;;;;;4992585;28;20054;-90
2024/03/24 08:22:22;;;;;;;2.72;1.13;;;9.90;95.80;;;;;;4992913;28;20057;-89
2024/03/24 08:24:49;;;;;;;3.20;0.60;;;9.90;95.00;;;;;;5008057;28;20042;-90
2024/03/24 08:27:20;;;;;;;4.35;1.65;;;10.20;94.90;;;;;;5007134;28;20093;-90
2024/03/24 08:29:46;;;;;;;4.38;0.70;;;10.10;94.40;;;;;;4985353;28;20045;-87
2024/03/24 08:32:16;;;;;;;4.82;1.40;;;10.20;93.60;;;;;;4990259;28;20141;-90
2024/03/24 08:34:43;;;;;;;2.78;0.75;;;10.30;93.20;;;;;;4992151;28;20057;-91
2024/03/24 08:37:13;;;;;;;3.17;0.68;;;10.30;93.70;;;;;;5005527;28;20041;-90
2024/03/24 08:39:39;;;;;;;2.45;0.98;;;10.50;93.20;;;;;;4985171;28;20111;-92
2024/03/24 08:42:07;;;;;;;0.95;0.50;;;10.60;93.80;;;;;;4989104;28;20049;-91
2024/03/24 08:44:34;;;;;;;1.45;0.45;;;10.90;94.20;;;;;;4989108;28;20701;-91
2024/03/24 08:47:01;;;;;;;1.10;0.47;;;10.80;92.90;;;;;;4993958;28;20046;-89
2024/03/24 08:49:28;;;;;;;5.45;1.65;;;10.70;92.90;;;;;;4993493;28;20042;-91
2024/03/24 08:51:55;;;;;;;3.80;0.80;;;10.60;92.50;;;;;;4977213;28;20565;-89
2024/03/24 08:54:23;;;;;;;2.28;0.80;;;10.60;92.10;;;;;;5022075;28;20130;-92
2024/03/24 08:56:52;;;;;;;1.27;0.68;;;10.80;92.80;;;;;;5006077;28;20049;-90
2024/03/24 08:59:20;;;;;;;3.95;2.20;;;10.90;92.20;;;;;;5010562;28;20034;-92
2024/03/24 09:01:48;;;;;;;3.97;1.17;;;10.90;92.60;;;;;;5025862;28;20490;-90
2024/03/24 09:04:14;;;;;;;2.05;0.70;;;10.80;91.30;;;;;;4994722;28;20105;-91
2024/03/24 09:06:43;;;;;;;2.65;0.47;;;11.10;91.50;;;;;;4992652;28;20050;-88
2024/03/24 09:09:10;;;;;;;1.67;0.50;;;11.20;91.20;;;;;;4993188;28;20033;-86
2024/03/24 09:11:39;;;;;;;3.35;0.50;;;11.20;89.80;;;;;;5013523;28;20061;-90
2024/03/24 09:14:05;;;;;;;1.80;0.43;;;10.90;88.70;;;;;;4999464;28;20056;-91
2024/03/24 09:16:33;;;;;;;1.90;0.30;;;11.20;89.50;;;;;;5003203;28;20036;-87
2024/03/24 09:18:59;;;;;;;1.35;0.40;;;11.10;88.60;;;;;;5007317;28;20034;-92
2024/03/24 09:21:27;;;;;;;2.10;0.40;;;11.30;88.80;;;;;;5015554;28;20409;-91
2024/03/24 09:23:54;;;;;;;2.22;0.98;;;11.50;87.00;;;;;;5007766;28;20050;-90
2024/03/24 09:26:22;;;;;;;1.75;0.50;;;11.60;89.10;;;;;;5005123;28;20317;-88
2024/03/24 09:28:50;;;;;;;2.25;1.23;;;11.40;84.90;;;;;;5029043;28;20041;-89
2024/03/24 09:31:17;;;;;;;1.10;0.30;;;11.50;87.00;;;;;;4991556;28;20100;-87
2024/03/24 09:33:44;;;;;;;2.05;0.40;;;11.60;85.20;;;;;;4985772;28;20109;-91
2024/03/24 09:36:15;;;;;;;0.98;0.30;;;12.10;83.20;;;;;;5010041;28;20037;-89
2024/03/24 09:38:41;;;;;;;2.35;1.15;;;12.00;82.50;;;;;;5009158;28;20065;-91
2024/03/24 09:41:09;;;;;;;4.18;1.63;;;12.00;80.80;;;;;;4989535;28;20046;-92
2024/03/24 09:43:35;;;;;;;1.67;0.50;;;12.20;80.90;;;;;;4998634;28;20497;-87
2024/03/24 09:46:05;;;;;;;1.65;0.90;;;12.20;79.50;;;;;;4993708;28;20042;-89
2024/03/24 09:48:32;;;;;;;2.63;0.60;;;12.30;80.10;;;;;;4972035;28;20040;-91
2024/03/24 09:51:04;;;;;;;1.85;1.45;;;12.30;79.80;;;;;;4991689;28;20509;-91
2024/03/24 09:53:34;;;;;;;2.80;0.50;;;12.20;79.50;;;;;;4995264;28;20105;-89
2024/03/24 09:56:02;;;;;;;2.28;2.08;;;12.00;79.10;;;;;;4990592;28;20437;-90
2024/03/24 09:58:30;;;;;;;3.38;2.28;;;12.10;79.60;;;;;;5011633;28;20047;-89
2024/03/24 10:00:57;;;;;;;4.70;2.83;;;11.90;80.70;;;;;;4989182;28;20060;-87
2024/03/24 10:03:26;;;;;;;1.52;0.77;;;12.30;81.00;;;;;;4982673;28;20624;-91
2024/03/24 10:05:52;;;;;;;3.58;0.82;;;11.90;80.70;;;;;;4982905;28;20125;-86
2024/03/24 10:08:20;;;;;;;2.20;0.70;;;11.90;79.90;;;;;;5002525;28;20085;-86
2024/03/24 10:10:46;;;;;;;1.77;0.85;;;12.20;80.20;;;;;;4983321;28;20049;-88
2024/03/24 10:13:14;;;;;;;1.17;0.30;;;12.60;79.60;;;;;;4999009;28;20050;-87
2024/03/24 10:15:41;;;;;;;13.10;7.03;;;12.40;78.00;;;;;;4990466;28;20041;-91
2024/03/24 10:18:10;;;;;;;2.92;0.68;;;11.80;77.70;;;;;;5002131;28;20048;-88
2024/03/24 10:20:39;;;;;;;1.63;0.57;;;12.30;77.90;;;;;;5004693;28;20045;-88
2024/03/24 10:23:08;;;;;;;2.13;0.68;;;12.60;78.00;;;;;;4989284;28;20030;-89
2024/03/24 10:25:34;;;;;;;2.42;0.85;;;13.20;76.70;;;;;;4991960;28;20059;-89
2024/03/24 10:28:02;;;;;;;1.73;0.47;;;13.30;74.80;;;;;;5004658;28;20481;-89
2024/03/24 10:30:29;;;;;;;3.80;2.25;;;12.70;72.10;;;;;;4986181;28;20052;-88
2024/03/24 10:32:56;;;;;;;2.55;0.95;;;12.60;71.80;;;;;;5005637;28;20580;-86
2024/03/24 10:35:23;;;;;;;16.98;1.35;;;12.30;73.00;;;;;;4966311;28;20079;-90
2024/03/24 10:37:52;;;;;;;1.23;0.50;;;12.20;73.20;;;;;;4987526;28;20049;-91
2024/03/24 10:40:19;;;;;;;10.80;4.65;;;12.00;72.80;;;;;;5002077;28;20045;-88
2024/03/24 10:42:48;;;;;;;4.70;1.67;;;11.70;73.20;;;;;;5002329;28;20052;-88
2024/03/24 10:45:21;;;;;;;6.10;2.85;;;11.80;74.30;;;;;;5005207;28;20041;-86
2024/03/24 10:47:53;;;;;;;5.55;1.92;;;11.80;74.90;;;;;;4984172;28;20391;-87
2024/03/24 10:50:21;;;;;;;3.28;2.38;;;11.80;75.60;;;;;;4987041;28;20775;-89
2024/03/24 10:52:53;;;;;;;2.20;0.63;;;12.10;74.50;;;;;;4999500;28;20079;-88
2024/03/24 10:55:23;;;;;;;1.80;0.73;;;11.80;73.70;;;;;;4996650;28;20485;-88
2024/03/24 10:57:52;;;;;;;5.85;1.20;;;11.80;74.70;;;;;;5014728;28;20034;-88
2024/03/24 11:00:19;;;;;;;5.53;3.45;;;11.50;73.80;;;;;;4986292;28;20045;-88
2024/03/24 11:02:47;;;;;;;4.40;2.92;;;11.40;74.30;;;;;;4999918;28;20045;-87
2024/03/24 11:05:15;;;;;;;9.00;4.47;;;11.50;74.60;;;;;;4991634;28;20034;-87
2024/03/24 11:07:43;;;;;;;7.88;3.72;;;11.50;74.90;;;;;;5001788;28;20046;-85
2024/03/24 11:10:10;;;;;;;5.60;3.13;;;11.50;75.70;;;;;;5002858;28;20037;-87
2024/03/24 11:12:42;;;;;;;7.35;2.25;;;11.50;76.30;;;;;;5006423;28;20085;-89
2024/03/24 11:15:09;;;;;;;5.63;3.05;;;11.70;75.50;;;;;;5008732;28;20523;-87
2024/03/24 11:17:37;;;;;;;4.70;2.97;;;11.70;74.60;;;;;;5002633;28;20144;-88
2024/03/24 11:20:06;;;;;;;3.20;1.42;;;11.70;75.10;;;;;;4990779;28;20045;-90
2024/03/24 11:22:37;;;;;;;3.42;1.45;;;11.50;75.20;;;;;;4985953;28;20045;-89
2024/03/24 11:25:04;;;;;;;1.42;0.38;;;11.50;75.40;;;;;;5029858;28;20072;-87
2024/03/24 11:27:32;;;;;;;4.93;1.95;;;11.60;75.60;;;;;;4989064;28;20037;-89
2024/03/24 11:30:00;;;;;;;1.42;0.50;;;11.50;75.50;;;;;;4998887;28;20156;-88
2024/03/24 11:32:50;;;;;;;2.90;1.15;;;11.40;75.40;;;;;;5000198;28;20061;-89
2024/03/24 11:35:18;;;;;;;3.10;0.98;;;11.50;76.40;;;;;;4988660;28;20038;-88
2024/03/24 11:37:53;;;;;;;2.65;1.50;;;11.50;76.70;;;;;;5000516;28;20046;-88
2024/03/24 11:40:21;;;;;;;1.15;0.43;;;11.50;76.50;;;;;;5017902;28;20059;-90
2024/03/24 11:42:52;;;;;;;1.00;0.20;;;11.50;76.10;;;;;;4987396;28;20042;-88
2024/03/24 11:45:29;;;;;;;2.15;1.40;;;11.80;76.90;;;;;;4985769;28;20514;-88
2024/03/24 11:48:34;;;;;;;1.60;0.65;;;11.90;76.50;;;;;;4987085;28;20038;-89
2024/03/24 11:51:01;;;;;;;3.65;1.85;;;12.30;76.40;;;;;;4993091;28;20069;-89
2024/03/24 11:53:31;;;;;;;0.90;0.40;;;12.70;75.70;;;;;;5003741;28;20062;-88
2024/03/24 11:55:59;;;;;;;1.25;0.30;;;12.70;75.80;;;;;;4989208;28;20045;-88
2024/03/24 11:58:27;;;;;;;4.20;0.40;;;13.00;76.00;;;;;;4997106;28;20515;-88
2024/03/24 12:00:55;;;;;;;3.90;0.80;;;12.70;74.80;;;;;;5000718;28;20049;-87
2024/03/24 12:03:23;;;;;;;1.13;0.40;;;12.50;75.60;;;;;;5020342;28;20042;-88
2024/03/24 12:05:52;;;;;;;1.63;0.98;;;12.40;76.30;;;;;;5006067;28;20104;-89
2024/03/24 12:08:21;;;;;;;3.33;1.77;;;12.50;77.80;;;;;;5003185;28;20026;-88
2024/03/24 12:10:48;;;;;;;2.45;0.47;;;12.40;77.70;;;;;;4960592;28;20042;-88
2024/03/24 12:13:16;;;;;;;1.13;0.38;;;12.10;77.70;;;;;;5001398;28;20038;-87
2024/03/24 12:15:44;;;;;;;2.75;0.30;;;12.20;78.40;;;;;;4985468;28;20038;-88
2024/03/24 12:18:14;;;;;;;1.55;0.30;;;12.00;77.90;;;;;;5001327;28;20684;-87
2024/03/24 12:20:41;;;;;;;3.42;1.02;;;11.90;79.40;;;;;;4987581;28;20565;-88
2024/03/24 12:23:10;;;;;;;2.03;0.63;;;12.30;79.40;;;;;;4970468;28;20177;-88
2024/03/24 12:25:43;;;;;;;3.60;1.58;;;12.80;78.90;;;;;;5003953;28;20053;-88
2024/03/24 12:28:16;;;;;;;2.60;0.65;;;13.20;78.50;;;;;;5013951;28;20038;-88
2024/03/24 12:30:50;;;;;;;12.70;5.85;;;13.60;75.20;;;;;;5002786;28;20150;-89
2024/03/24 12:33:23;;;;;;;0.68;0.28;;;13.40;73.50;;;;;;5003404;28;20088;-87
2024/03/24 12:35:51;;;;;;;1.25;0.60;;;13.60;73.70;;;;;;4983187;28;20054;-89
2024/03/24 12:38:19;;;;;;;0.65;0.25;;;13.00;75.00;;;;;;5001249;28;20485;-87
2024/03/24 12:40:50;;;;;;;0.98;0.30;;;12.90;75.10;;;;;;4997804;28;20433;-87
2024/03/24 12:43:17;;;;;;;2.00;0.20;;;13.10;72.40;;;;;;4988610;28;20038;-87
2024/03/24 12:45:52;;;;;;;1.10;0.20;;;13.00;72.30;;;;;;4990252;28;20053;-86
2024/03/24 12:48:20;;;;;;;2.15;0.30;;;12.80;73.10;;;;;;4973497;28;20042;-86
2024/03/24 12:50:48;;;;;;;0.73;0.28;;;12.40;72.70;;;;;;5009281;28;20045;-88
2024/03/24 12:53:34;;;;;;;0.98;0.22;;;12.30;72.60;;;;;;4997428;28;20089;-88
2024/03/24 12:56:03;;;;;;;1.27;0.30;;;12.10;72.00;;;;;;5019102;28;20056;-87
2024/03/24 12:58:34;;;;;;;1.45;0.15;;;11.90;71.70;;;;;;4988876;28;20497;-86
2024/03/24 13:01:03;;;;;;;3.03;0.13;;;11.90;73.50;;;;;;4996624;28;20064;-89
2024/03/24 13:03:31;;;;;;;0.85;0.30;;;12.20;74.70;;;;;;5007388;28;20046;-88
2024/03/24 13:06:02;;;;;;;3.92;0.95;;;12.10;73.80;;;;;;5004810;28;20042;-92
2024/03/24 13:08:33;;;;;;;1.52;0.50;;;11.80;73.80;;;;;;5008273;28;20497;-90